sensor_id;sensor_type;location;lat;lon;timestamp;P1;durP1;ratioP1;P2;durP2;ratioP2
9801;SDS011;4940;50.900;4.672;2022-07-04T00:01:55;1.30;;;1.20;;
9801;SDS011;4940;50.900;4.672;2022-07-04T00:04:23;1.30;;;1.20;;
9801;SDS011;4940;50.900;4.672;2022-07-04T00:06:50;2.63;;;1.58;;
9801;SDS011;4940;50.900;4.672;2022-07-04T00:09:17;2.63;;;1.60;;
9801;SDS011;4940;50.900;4.672;2022-07-04T00:11:45;2.97;;;1.13;;
9801;SDS011;4940;50.900;4.672;2022-07-04T00:14:12;2.67;;;1.30;;
9801;SDS011;4940;50.900;4.672;2022-07-04T00:16:39;4.65;;;1.67;;
9801;SDS011;4940;50.900;4.672;2022-07-04T00:19:08;2.70;;;1.30;;
9801;SDS011;4940;50.900;4.672;2022-07-04T00:21:35;1.90;;;1.35;;
9801;SDS011;4940;50.900;4.672;2022-07-04T00:24:02;5.47;;;1.40;;
9801;SDS011;4940;50.900;4.672;2022-07-04T00:26:30;2.58;;;1.20;;
9801;SDS011;4940;50.900;4.672;2022-07-04T00:28:57;1.90;;;1.30;;
9801;SDS011;4940;50.900;4.672;2022-07-04T00:31:24;2.03;;;1.67;;
9801;SDS011;4940;50.900;4.672;2022-07-04T00:33:51;4.50;;;1.40;;
9801;SDS011;4940;50.900;4.672;2022-07-04T00:36:20;1.50;;;1.33;;
9801;SDS011;4940;50.900;4.672;2022-07-04T00:38:47;2.50;;;1.25;;
9801;SDS011;4940;50.900;4.672;2022-07-04T00:41:14;3.00;;;1.15;;
9801;SDS011;4940;50.900;4.672;2022-07-04T00:43:41;2.72;;;1.33;;
9801;SDS011;4940;50.900;4.672;2022-07-04T00:46:09;3.75;;;1.38;;
9801;SDS011;4940;50.900;4.672;2022-07-04T00:48:36;2.75;;;1.25;;
9801;SDS011;4940;50.900;4.672;2022-07-04T00:51:03;2.40;;;1.38;;
9801;SDS011;4940;50.900;4.672;2022-07-04T00:53:32;3.35;;;1.23;;
9801;SDS011;4940;50.900;4.672;2022-07-04T00:55:59;3.67;;;1.20;;
9801;SDS011;4940;50.900;4.672;2022-07-04T00:58:26;1.45;;;1.13;;
9801;SDS011;4940;50.900;4.672;2022-07-04T01:00:54;3.65;;;1.38;;
9801;SDS011;4940;50.900;4.672;2022-07-04T01:03:21;2.65;;;1.40;;
9801;SDS011;4940;50.900;4.672;2022-07-04T01:05:49;2.30;;;1.50;;
9801;SDS011;4940;50.900;4.672;2022-07-04T01:08:17;5.15;;;1.63;;
9801;SDS011;4940;50.900;4.672;2022-07-04T01:10:45;4.30;;;1.60;;
9801;SDS011;4940;50.900;4.672;2022-07-04T01:13:18;1.85;;;1.30;;
9801;SDS011;4940;50.900;4.672;2022-07-04T01:15:46;3.60;;;1.80;;
9801;SDS011;4940;50.900;4.672;2022-07-04T01:18:14;3.20;;;1.50;;
9801;SDS011;4940;50.900;4.672;2022-07-04T01:20:42;1.73;;;1.30;;
9801;SDS011;4940;50.900;4.672;2022-07-04T01:23:10;2.58;;;1.20;;
9801;SDS011;4940;50.900;4.672;2022-07-04T01:25:37;2.25;;;1.50;;
9801;SDS011;4940;50.900;4.672;2022-07-04T01:28:05;2.70;;;1.60;;
9801;SDS011;4940;50.900;4.672;2022-07-04T01:30:32;3.35;;;1.80;;
9801;SDS011;4940;50.900;4.672;2022-07-04T01:33:00;2.97;;;1.70;;
9801;SDS011;4940;50.900;4.672;2022-07-04T01:35:27;3.20;;;1.58;;
9801;SDS011;4940;50.900;4.672;2022-07-04T01:37:56;2.53;;;1.85;;
9801;SDS011;4940;50.900;4.672;2022-07-04T01:40:24;5.03;;;1.90;;
9801;SDS011;4940;50.900;4.672;2022-07-04T01:42:51;4.75;;;1.95;;
9801;SDS011;4940;50.900;4.672;2022-07-04T01:45:18;2.40;;;1.85;;
9801;SDS011;4940;50.900;4.672;2022-07-04T01:47:46;3.70;;;2.17;;
9801;SDS011;4940;50.900;4.672;2022-07-04T01:50:13;3.78;;;1.95;;
9801;SDS011;4940;50.900;4.672;2022-07-04T01:52:40;2.90;;;2.45;;
9801;SDS011;4940;50.900;4.672;2022-07-04T01:55:10;4.85;;;2.58;;
9801;SDS011;4940;50.900;4.672;2022-07-04T01:57:37;4.95;;;2.30;;
9801;SDS011;4940;50.900;4.672;2022-07-04T02:00:06;5.40;;;2.30;;
9801;SDS011;4940;50.900;4.672;2022-07-04T02:02:52;4.03;;;2.50;;
9801;SDS011;4940;50.900;4.672;2022-07-04T02:05:19;2.95;;;2.03;;
9801;SDS011;4940;50.900;4.672;2022-07-04T02:07:47;2.85;;;2.22;;
9801;SDS011;4940;50.900;4.672;2022-07-04T02:10:16;2.47;;;2.08;;
9801;SDS011;4940;50.900;4.672;2022-07-04T02:12:44;3.38;;;2.40;;
9801;SDS011;4940;50.900;4.672;2022-07-04T02:15:29;3.78;;;2.28;;
9801;SDS011;4940;50.900;4.672;2022-07-04T02:17:57;3.58;;;2.10;;
9801;SDS011;4940;50.900;4.672;2022-07-04T02:20:25;4.22;;;2.33;;
9801;SDS011;4940;50.900;4.672;2022-07-04T02:22:53;3.58;;;2.00;;
9801;SDS011;4940;50.900;4.672;2022-07-04T02:25:21;4.28;;;2.20;;
9801;SDS011;4940;50.900;4.672;2022-07-04T02:27:48;2.60;;;2.28;;
9801;SDS011;4940;50.900;4.672;2022-07-04T02:30:16;4.43;;;2.20;;
9801;SDS011;4940;50.900;4.672;2022-07-04T02:32:43;3.63;;;2.30;;
9801;SDS011;4940;50.900;4.672;2022-07-04T02:35:10;4.22;;;2.42;;
9801;SDS011;4940;50.900;4.672;2022-07-04T02:37:38;4.47;;;2.10;;
9801;SDS011;4940;50.900;4.672;2022-07-04T02:40:06;4.60;;;2.53;;
9801;SDS011;4940;50.900;4.672;2022-07-04T02:42:36;4.50;;;2.80;;
9801;SDS011;4940;50.900;4.672;2022-07-04T02:45:04;3.08;;;2.28;;
9801;SDS011;4940;50.900;4.672;2022-07-04T02:47:32;3.65;;;2.38;;
9801;SDS011;4940;50.900;4.672;2022-07-04T02:49:59;4.53;;;2.47;;
9801;SDS011;4940;50.900;4.672;2022-07-04T02:52:27;4.85;;;2.35;;
9801;SDS011;4940;50.900;4.672;2022-07-04T02:54:55;4.88;;;2.40;;
9801;SDS011;4940;50.900;4.672;2022-07-04T02:57:22;3.83;;;2.30;;
9801;SDS011;4940;50.900;4.672;2022-07-04T02:59:51;2.38;;;2.03;;
9801;SDS011;4940;50.900;4.672;2022-07-04T03:02:18;3.00;;;2.10;;
9801;SDS011;4940;50.900;4.672;2022-07-04T03:04:45;2.65;;;2.08;;
9801;SDS011;4940;50.900;4.672;2022-07-04T03:07:13;2.33;;;2.00;;
9801;SDS011;4940;50.900;4.672;2022-07-04T03:09:39;3.35;;;1.98;;
9801;SDS011;4940;50.900;4.672;2022-07-04T03:12:07;3.20;;;1.90;;
9801;SDS011;4940;50.900;4.672;2022-07-04T03:14:35;3.50;;;1.88;;
9801;SDS011;4940;50.900;4.672;2022-07-04T03:17:04;2.92;;;1.70;;
9801;SDS011;4940;50.900;4.672;2022-07-04T03:19:31;2.13;;;1.73;;
9801;SDS011;4940;50.900;4.672;2022-07-04T03:21:59;2.80;;;2.00;;
9801;SDS011;4940;50.900;4.672;2022-07-04T03:24:26;4.72;;;2.40;;
9801;SDS011;4940;50.900;4.672;2022-07-04T03:26:53;6.07;;;2.17;;
9801;SDS011;4940;50.900;4.672;2022-07-04T03:29:20;2.65;;;1.80;;
9801;SDS011;4940;50.900;4.672;2022-07-04T03:31:48;3.38;;;1.60;;
9801;SDS011;4940;50.900;4.672;2022-07-04T03:34:17;3.00;;;1.80;;
9801;SDS011;4940;50.900;4.672;2022-07-04T03:36:44;3.90;;;1.83;;
9801;SDS011;4940;50.900;4.672;2022-07-04T03:39:11;3.95;;;1.70;;
9801;SDS011;4940;50.900;4.672;2022-07-04T03:41:38;7.32;;;1.90;;
9801;SDS011;4940;50.900;4.672;2022-07-04T03:44:05;6.53;;;1.98;;
9801;SDS011;4940;50.900;4.672;2022-07-04T03:46:33;4.68;;;1.95;;
9801;SDS011;4940;50.900;4.672;2022-07-04T03:49:00;5.95;;;2.40;;
9801;SDS011;4940;50.900;4.672;2022-07-04T03:51:28;2.40;;;1.65;;
9801;SDS011;4940;50.900;4.672;2022-07-04T03:53:56;5.68;;;2.08;;
9801;SDS011;4940;50.900;4.672;2022-07-04T03:56:23;1.90;;;1.60;;
9801;SDS011;4940;50.900;4.672;2022-07-04T03:58:50;2.83;;;1.67;;
9801;SDS011;4940;50.900;4.672;2022-07-04T04:01:18;4.78;;;2.10;;
9801;SDS011;4940;50.900;4.672;2022-07-04T04:03:48;3.25;;;2.00;;
9801;SDS011;4940;50.900;4.672;2022-07-04T04:06:34;1.90;;;1.70;;
9801;SDS011;4940;50.900;4.672;2022-07-04T04:09:01;3.40;;;2.20;;
9801;SDS011;4940;50.900;4.672;2022-07-04T04:11:29;2.78;;;2.03;;
9801;SDS011;4940;50.900;4.672;2022-07-04T04:13:57;4.15;;;2.03;;
9801;SDS011;4940;50.900;4.672;2022-07-04T04:16:27;2.22;;;2.00;;
9801;SDS011;4940;50.900;4.672;2022-07-04T04:18:54;3.28;;;2.00;;
9801;SDS011;4940;50.900;4.672;2022-07-04T04:21:22;3.03;;;1.88;;
9801;SDS011;4940;50.900;4.672;2022-07-04T04:23:51;4.82;;;1.88;;
9801;SDS011;4940;50.900;4.672;2022-07-04T04:26:18;3.60;;;1.80;;
9801;SDS011;4940;50.900;4.672;2022-07-04T04:28:45;3.08;;;2.20;;
9801;SDS011;4940;50.900;4.672;2022-07-04T04:31:12;2.78;;;1.90;;
9801;SDS011;4940;50.900;4.672;2022-07-04T04:33:42;3.60;;;1.90;;
9801;SDS011;4940;50.900;4.672;2022-07-04T04:36:09;3.13;;;1.90;;
9801;SDS011;4940;50.900;4.672;2022-07-04T04:38:37;2.40;;;1.67;;
9801;SDS011;4940;50.900;4.672;2022-07-04T04:41:06;2.50;;;1.83;;
9801;SDS011;4940;50.900;4.672;2022-07-04T04:43:33;3.22;;;1.80;;
9801;SDS011;4940;50.900;4.672;2022-07-04T04:46:00;5.88;;;1.88;;
9801;SDS011;4940;50.900;4.672;2022-07-04T04:48:27;3.35;;;1.63;;
9801;SDS011;4940;50.900;4.672;2022-07-04T04:50:54;5.35;;;1.60;;
9801;SDS011;4940;50.900;4.672;2022-07-04T04:53:22;6.53;;;1.88;;
9801;SDS011;4940;50.900;4.672;2022-07-04T04:55:50;1.65;;;1.50;;
9801;SDS011;4940;50.900;4.672;2022-07-04T04:58:19;1.67;;;1.58;;
9801;SDS011;4940;50.900;4.672;2022-07-04T05:00:47;2.67;;;1.77;;
9801;SDS011;4940;50.900;4.672;2022-07-04T05:03:15;2.33;;;1.75;;
9801;SDS011;4940;50.900;4.672;2022-07-04T05:05:42;3.30;;;1.65;;
9801;SDS011;4940;50.900;4.672;2022-07-04T05:08:09;4.57;;;2.20;;
9801;SDS011;4940;50.900;4.672;2022-07-04T05:10:37;2.83;;;1.83;;
9801;SDS011;4940;50.900;4.672;2022-07-04T05:13:05;3.78;;;2.00;;
9801;SDS011;4940;50.900;4.672;2022-07-04T05:15:33;3.08;;;1.67;;
9801;SDS011;4940;50.900;4.672;2022-07-04T05:18:01;3.78;;;1.98;;
9801;SDS011;4940;50.900;4.672;2022-07-04T05:20:31;5.95;;;2.03;;
9801;SDS011;4940;50.900;4.672;2022-07-04T05:22:58;4.35;;;2.10;;
9801;SDS011;4940;50.900;4.672;2022-07-04T05:25:26;4.90;;;2.35;;
9801;SDS011;4940;50.900;4.672;2022-07-04T05:27:53;2.92;;;2.00;;
9801;SDS011;4940;50.900;4.672;2022-07-04T05:30:20;3.53;;;2.05;;
9801;SDS011;4940;50.900;4.672;2022-07-04T05:32:49;2.97;;;1.90;;
9801;SDS011;4940;50.900;4.672;2022-07-04T05:35:16;2.17;;;1.63;;
9801;SDS011;4940;50.900;4.672;2022-07-04T05:37:43;4.25;;;2.10;;
9801;SDS011;4940;50.900;4.672;2022-07-04T05:40:10;2.08;;;1.48;;
9801;SDS011;4940;50.900;4.672;2022-07-04T05:42:38;2.25;;;1.70;;
9801;SDS011;4940;50.900;4.672;2022-07-04T05:45:06;2.70;;;1.63;;
9801;SDS011;4940;50.900;4.672;2022-07-04T05:47:33;3.08;;;1.70;;
9801;SDS011;4940;50.900;4.672;2022-07-04T05:50:02;4.63;;;1.65;;
9801;SDS011;4940;50.900;4.672;2022-07-04T05:52:30;2.47;;;1.52;;
9801;SDS011;4940;50.900;4.672;2022-07-04T05:54:57;1.63;;;1.40;;
9801;SDS011;4940;50.900;4.672;2022-07-04T05:57:24;4.57;;;1.80;;
9801;SDS011;4940;50.900;4.672;2022-07-04T05:59:51;2.13;;;1.42;;
9801;SDS011;4940;50.900;4.672;2022-07-04T06:02:19;1.90;;;1.38;;
9801;SDS011;4940;50.900;4.672;2022-07-04T06:04:46;1.98;;;1.42;;
9801;SDS011;4940;50.900;4.672;2022-07-04T06:07:15;1.42;;;1.33;;
9801;SDS011;4940;50.900;4.672;2022-07-04T06:09:42;1.52;;;1.30;;
9801;SDS011;4940;50.900;4.672;2022-07-04T06:12:10;5.80;;;1.20;;
9801;SDS011;4940;50.900;4.672;2022-07-04T06:14:38;2.53;;;1.23;;
9801;SDS011;4940;50.900;4.672;2022-07-04T06:17:05;1.55;;;1.10;;
9801;SDS011;4940;50.900;4.672;2022-07-04T06:19:32;2.47;;;1.05;;
9801;SDS011;4940;50.900;4.672;2022-07-04T06:22:00;2.72;;;1.60;;
9801;SDS011;4940;50.900;4.672;2022-07-04T06:24:28;1.45;;;1.02;;
9801;SDS011;4940;50.900;4.672;2022-07-04T06:26:55;1.75;;;1.13;;
9801;SDS011;4940;50.900;4.672;2022-07-04T06:29:23;1.80;;;1.20;;
9801;SDS011;4940;50.900;4.672;2022-07-04T06:31:50;4.00;;;1.10;;
9801;SDS011;4940;50.900;4.672;2022-07-04T06:34:17;1.52;;;1.00;;
9801;SDS011;4940;50.900;4.672;2022-07-04T06:37:10;4.00;;;1.05;;
9801;SDS011;4940;50.900;4.672;2022-07-04T06:39:38;4.72;;;1.30;;
9801;SDS011;4940;50.900;4.672;2022-07-04T06:42:06;4.13;;;1.10;;
9801;SDS011;4940;50.900;4.672;2022-07-04T06:44:33;4.70;;;1.20;;
9801;SDS011;4940;50.900;4.672;2022-07-04T06:47:00;1.27;;;0.93;;
9801;SDS011;4940;50.900;4.672;2022-07-04T06:49:27;3.35;;;1.20;;
9801;SDS011;4940;50.900;4.672;2022-07-04T06:51:54;3.20;;;1.10;;
9801;SDS011;4940;50.900;4.672;2022-07-04T06:54:22;2.38;;;1.20;;
9801;SDS011;4940;50.900;4.672;2022-07-04T06:56:51;2.17;;;1.30;;
9801;SDS011;4940;50.900;4.672;2022-07-04T06:59:18;2.47;;;1.20;;
9801;SDS011;4940;50.900;4.672;2022-07-04T07:01:45;3.28;;;1.40;;
9801;SDS011;4940;50.900;4.672;2022-07-04T07:04:12;2.60;;;1.10;;
9801;SDS011;4940;50.900;4.672;2022-07-04T07:06:39;4.40;;;1.70;;
9801;SDS011;4940;50.900;4.672;2022-07-04T07:09:07;3.63;;;1.10;;
9801;SDS011;4940;50.900;4.672;2022-07-04T07:11:34;2.08;;;1.20;;
9801;SDS011;4940;50.900;4.672;2022-07-04T07:14:03;1.27;;;1.10;;
9801;SDS011;4940;50.900;4.672;2022-07-04T07:16:32;2.08;;;1.65;;
9801;SDS011;4940;50.900;4.672;2022-07-04T07:18:59;2.90;;;1.15;;
9801;SDS011;4940;50.900;4.672;2022-07-04T07:21:27;1.40;;;1.08;;
9801;SDS011;4940;50.900;4.672;2022-07-04T07:23:54;2.80;;;1.20;;
9801;SDS011;4940;50.900;4.672;2022-07-04T07:26:24;5.07;;;1.13;;
9801;SDS011;4940;50.900;4.672;2022-07-04T07:28:52;1.38;;;1.23;;
9801;SDS011;4940;50.900;4.672;2022-07-04T07:31:20;2.63;;;1.40;;
9801;SDS011;4940;50.900;4.672;2022-07-04T07:33:48;2.33;;;1.17;;
9801;SDS011;4940;50.900;4.672;2022-07-04T07:36:15;2.72;;;1.25;;
9801;SDS011;4940;50.900;4.672;2022-07-04T07:38:42;2.53;;;1.20;;
9801;SDS011;4940;50.900;4.672;2022-07-04T07:41:10;1.13;;;1.02;;
9801;SDS011;4940;50.900;4.672;2022-07-04T07:43:37;4.35;;;1.55;;
9801;SDS011;4940;50.900;4.672;2022-07-04T07:46:07;5.28;;;1.45;;
9801;SDS011;4940;50.900;4.672;2022-07-04T07:48:36;4.60;;;1.30;;
9801;SDS011;4940;50.900;4.672;2022-07-04T07:51:03;4.00;;;1.20;;
9801;SDS011;4940;50.900;4.672;2022-07-04T07:53:30;2.72;;;1.27;;
9801;SDS011;4940;50.900;4.672;2022-07-04T07:55:58;1.80;;;1.40;;
9801;SDS011;4940;50.900;4.672;2022-07-04T07:58:25;3.00;;;1.25;;
9801;SDS011;4940;50.900;4.672;2022-07-04T08:00:53;1.55;;;1.17;;
9801;SDS011;4940;50.900;4.672;2022-07-04T08:03:20;3.17;;;1.70;;
9801;SDS011;4940;50.900;4.672;2022-07-04T08:06:06;4.20;;;1.45;;
9801;SDS011;4940;50.900;4.672;2022-07-04T08:08:33;1.48;;;1.30;;
9801;SDS011;4940;50.900;4.672;2022-07-04T08:11:01;1.55;;;1.27;;
9801;SDS011;4940;50.900;4.672;2022-07-04T08:13:29;1.52;;;1.20;;
9801;SDS011;4940;50.900;4.672;2022-07-04T08:15:57;3.85;;;1.33;;
9801;SDS011;4940;50.900;4.672;2022-07-04T08:18:24;2.72;;;1.30;;
9801;SDS011;4940;50.900;4.672;2022-07-04T08:20:51;1.45;;;1.10;;
9801;SDS011;4940;50.900;4.672;2022-07-04T08:23:20;1.13;;;1.13;;
9801;SDS011;4940;50.900;4.672;2022-07-04T08:25:48;3.08;;;1.25;;
9801;SDS011;4940;50.900;4.672;2022-07-04T08:28:15;1.30;;;1.20;;
9801;SDS011;4940;50.900;4.672;2022-07-04T08:30:42;3.55;;;1.40;;
9801;SDS011;4940;50.900;4.672;2022-07-04T08:33:10;3.72;;;1.33;;
9801;SDS011;4940;50.900;4.672;2022-07-04T08:35:39;1.80;;;1.65;;
9801;SDS011;4940;50.900;4.672;2022-07-04T08:38:07;3.10;;;1.33;;
